Portada
METAR-TAF:

METAR-TAF

Aeroports :

Donegal, Irlanda

latitud: 55-02-39N, longitud: 8-20-28W, altitud: 9 m

Observació

L'informe es va fer fa 5 hores i 55 minuts, a les 18:30 UTC
Vent 12 kt del Est/Nord-Est
Temperatura 14°C
Humitat 72%
Pressió 1023 hPa
Visibilitat 10 km o més
sense núvols per sota de 1500 mi sense presència de cumulonimbus.

METAR: EIDL 191830Z 06012KT CAVOK 14/09 Q1023

Hora: 01:25 (00:25 UTC)

Pronòstic

L'informe es va fer fa 7 hores i 25 minuts, a les 17:00 UTC
Pronòstic vàlid del 19 a les 18 UTC al 20 a les 03 UTC
Vent 12 kt del Nord-Est
Visibilitat 10 km o més
Escasses núvols a una alçada de 3000 ft
Evolucionant progressivament
l' 19 a les 18 UTC al 19 a les 20 UTC
Vent 8 kt del Est

TAF: EIDL 191700Z 1918/2003 05012KT 9999 FEW030 BECMG 1918/1920 08008KT

Observacions i pronòstics meteorològics de més de 4000 aeroports (METAR i TAF).

Les estacions disponibles són els punts grocs i vermells al mapa.

Posi el ratolí al punt desitjat per veure el nom de l'estació.

Feu clic per veure les observacions i els pronòstics meteorològics.

Per canviar el mapa: feu clic els botons verds amb una creu de color negre per apropar; al botó verd amb un guió per allunyar la imatge; o en les fletxes verdes per a mapes adjacents.


METAR-TAF: